sensor_id;sensor_type;location;lat;lon;timestamp;temperature;humidity
18948;DHT22;9607;51.600;7.558;2023-01-08T00:02:02;10.90;99.90
18948;DHT22;9607;51.600;7.558;2023-01-08T00:04:29;10.90;99.90
18948;DHT22;9607;51.600;7.558;2023-01-08T00:06:55;10.80;99.90
18948;DHT22;9607;51.600;7.558;2023-01-08T00:09:22;10.90;99.90
18948;DHT22;9607;51.600;7.558;2023-01-08T00:11:49;10.90;99.90
18948;DHT22;9607;51.600;7.558;2023-01-08T00:14:16;10.90;99.90
18948;DHT22;9607;51.600;7.558;2023-01-08T00:16:44;11.00;99.90
18948;DHT22;9607;51.600;7.558;2023-01-08T00:19:12;11.00;99.90
18948;DHT22;9607;51.600;7.558;2023-01-08T00:21:39;11.00;99.90
18948;DHT22;9607;51.600;7.558;2023-01-08T00:24:06;11.00;99.90
18948;DHT22;9607;51.600;7.558;2023-01-08T00:26:32;11.00;99.90
18948;DHT22;9607;51.600;7.558;2023-01-08T00:28:59;11.00;99.90
18948;DHT22;9607;51.600;7.558;2023-01-08T00:31:26;11.00;99.90
18948;DHT22;9607;51.600;7.558;2023-01-08T00:33:54;11.00;99.90
18948;DHT22;9607;51.600;7.558;2023-01-08T00:36:21;11.00;99.90
18948;DHT22;9607;51.600;7.558;2023-01-08T00:38:48;11.00;99.90
18948;DHT22;9607;51.600;7.558;2023-01-08T00:41:15;11.00;99.90
18948;DHT22;9607;51.600;7.558;2023-01-08T00:43:42;11.00;99.90
18948;DHT22;9607;51.600;7.558;2023-01-08T00:46:09;11.00;99.90
18948;DHT22;9607;51.600;7.558;2023-01-08T00:48:36;11.00;99.90
18948;DHT22;9607;51.600;7.558;2023-01-08T00:51:05;11.00;99.90
18948;DHT22;9607;51.600;7.558;2023-01-08T00:53:32;11.00;99.90
18948;DHT22;9607;51.600;7.558;2023-01-08T00:56:00;11.00;99.90
18948;DHT22;9607;51.600;7.558;2023-01-08T00:58:27;11.00;99.90
18948;DHT22;9607;51.600;7.558;2023-01-08T01:00:54;10.90;99.90
18948;DHT22;9607;51.600;7.558;2023-01-08T01:03:21;10.90;99.90
18948;DHT22;9607;51.600;7.558;2023-01-08T01:05:48;10.90;99.90
18948;DHT22;9607;51.600;7.558;2023-01-08T01:08:17;10.90;99.90
18948;DHT22;9607;51.600;7.558;2023-01-08T01:10:43;10.90;99.90
18948;DHT22;9607;51.600;7.558;2023-01-08T01:13:10;10.80;99.90
18948;DHT22;9607;51.600;7.558;2023-01-08T01:15:37;10.80;99.90
18948;DHT22;9607;51.600;7.558;2023-01-08T01:18:03;10.80;99.90
18948;DHT22;9607;51.600;7.558;2023-01-08T01:20:30;10.90;99.90
18948;DHT22;9607;51.600;7.558;2023-01-08T01:22:57;10.80;99.90
18948;DHT22;9607;51.600;7.558;2023-01-08T01:25:25;10.80;99.90
18948;DHT22;9607;51.600;7.558;2023-01-08T01:27:52;10.80;99.90
18948;DHT22;9607;51.600;7.558;2023-01-08T01:30:19;10.80;99.90
18948;DHT22;9607;51.600;7.558;2023-01-08T01:32:45;10.80;99.90
18948;DHT22;9607;51.600;7.558;2023-01-08T01:35:12;10.80;99.90
18948;DHT22;9607;51.600;7.558;2023-01-08T01:37:39;10.80;99.90
18948;DHT22;9607;51.600;7.558;2023-01-08T01:40:06;10.80;99.90
18948;DHT22;9607;51.600;7.558;2023-01-08T01:42:34;10.80;99.90
18948;DHT22;9607;51.600;7.558;2023-01-08T01:45:15;10.80;99.90
18948;DHT22;9607;51.600;7.558;2023-01-08T01:47:45;10.80;99.90
18948;DHT22;9607;51.600;7.558;2023-01-08T01:50:15;10.80;99.90
18948;DHT22;9607;51.600;7.558;2023-01-08T01:52:45;10.80;99.90
18948;DHT22;9607;51.600;7.558;2023-01-08T01:55:15;10.80;99.90
18948;DHT22;9607;51.600;7.558;2023-01-08T01:57:48;10.80;99.90
18948;DHT22;9607;51.600;7.558;2023-01-08T02:00:16;10.70;99.90
18948;DHT22;9607;51.600;7.558;2023-01-08T02:02:44;10.70;99.90
18948;DHT22;9607;51.600;7.558;2023-01-08T02:05:12;10.70;99.90
18948;DHT22;9607;51.600;7.558;2023-01-08T02:07:43;10.70;99.90
18948;DHT22;9607;51.600;7.558;2023-01-08T02:10:17;10.70;99.90
18948;DHT22;9607;51.600;7.558;2023-01-08T02:12:51;10.80;99.90
18948;DHT22;9607;51.600;7.558;2023-01-08T02:15:24;10.80;99.90
18948;DHT22;9607;51.600;7.558;2023-01-08T02:17:55;10.70;99.90
18948;DHT22;9607;51.600;7.558;2023-01-08T02:20:26;10.70;99.90
18948;DHT22;9607;51.600;7.558;2023-01-08T02:26:03;10.70;99.90
18948;DHT22;9607;51.600;7.558;2023-01-08T02:28:37;10.70;99.90
18948;DHT22;9607;51.600;7.558;2023-01-08T02:31:06;10.70;99.90
18948;DHT22;9607;51.600;7.558;2023-01-08T02:33:32;10.80;99.90
18948;DHT22;9607;51.600;7.558;2023-01-08T02:36:22;10.80;99.90
18948;DHT22;9607;51.600;7.558;2023-01-08T02:39:00;10.80;99.90
18948;DHT22;9607;51.600;7.558;2023-01-08T02:41:40;10.80;99.90
18948;DHT22;9607;51.600;7.558;2023-01-08T02:44:12;10.80;99.90
18948;DHT22;9607;51.600;7.558;2023-01-08T02:46:42;10.80;99.90
18948;DHT22;9607;51.600;7.558;2023-01-08T02:49:10;10.80;99.90
18948;DHT22;9607;51.600;7.558;2023-01-08T02:51:41;10.80;99.90
18948;DHT22;9607;51.600;7.558;2023-01-08T02:54:13;10.80;99.90
18948;DHT22;9607;51.600;7.558;2023-01-08T02:56:45;10.80;99.90
18948;DHT22;9607;51.600;7.558;2023-01-08T02:59:14;10.80;99.90
18948;DHT22;9607;51.600;7.558;2023-01-08T03:01:41;10.70;99.90
18948;DHT22;9607;51.600;7.558;2023-01-08T03:04:12;10.70;99.90
18948;DHT22;9607;51.600;7.558;2023-01-08T03:06:40;10.60;99.90
18948;DHT22;9607;51.600;7.558;2023-01-08T03:09:07;10.60;99.90
18948;DHT22;9607;51.600;7.558;2023-01-08T03:11:39;10.60;99.90
18948;DHT22;9607;51.600;7.558;2023-01-08T03:14:17;10.60;99.90
18948;DHT22;9607;51.600;7.558;2023-01-08T03:16:47;10.60;99.90
18948;DHT22;9607;51.600;7.558;2023-01-08T03:19:19;10.60;99.90
18948;DHT22;9607;51.600;7.558;2023-01-08T03:21:48;10.50;99.90
18948;DHT22;9607;51.600;7.558;2023-01-08T03:24:19;10.50;99.90
18948;DHT22;9607;51.600;7.558;2023-01-08T03:26:49;10.40;99.90
18948;DHT22;9607;51.600;7.558;2023-01-08T03:29:19;10.40;99.90
18948;DHT22;9607;51.600;7.558;2023-01-08T03:31:49;10.40;99.90
18948;DHT22;9607;51.600;7.558;2023-01-08T03:34:19;10.40;99.90
18948;DHT22;9607;51.600;7.558;2023-01-08T03:36:49;10.40;99.90
18948;DHT22;9607;51.600;7.558;2023-01-08T03:39:20;10.30;99.90
18948;DHT22;9607;51.600;7.558;2023-01-08T03:41:48;10.30;99.90
18948;DHT22;9607;51.600;7.558;2023-01-08T03:44:15;10.30;99.90
18948;DHT22;9607;51.600;7.558;2023-01-08T03:46:47;10.30;99.90
18948;DHT22;9607;51.600;7.558;2023-01-08T03:49:16;10.30;99.90
18948;DHT22;9607;51.600;7.558;2023-01-08T03:51:46;10.30;99.90
18948;DHT22;9607;51.600;7.558;2023-01-08T03:54:14;10.30;99.90
18948;DHT22;9607;51.600;7.558;2023-01-08T03:56:41;10.30;99.90
18948;DHT22;9607;51.600;7.558;2023-01-08T03:59:09;10.30;99.90
18948;DHT22;9607;51.600;7.558;2023-01-08T04:01:36;10.20;99.90
18948;DHT22;9607;51.600;7.558;2023-01-08T04:04:04;10.20;99.90
18948;DHT22;9607;51.600;7.558;2023-01-08T04:06:31;10.20;99.90
18948;DHT22;9607;51.600;7.558;2023-01-08T04:08:59;10.20;99.90
18948;DHT22;9607;51.600;7.558;2023-01-08T04:11:26;10.20;99.90
18948;DHT22;9607;51.600;7.558;2023-01-08T04:13:53;10.20;99.90
18948;DHT22;9607;51.600;7.558;2023-01-08T04:16:20;10.10;99.90
18948;DHT22;9607;51.600;7.558;2023-01-08T04:18:46;10.20;99.90
18948;DHT22;9607;51.600;7.558;2023-01-08T04:21:14;10.20;99.90
18948;DHT22;9607;51.600;7.558;2023-01-08T04:23:42;10.10;99.90
18948;DHT22;9607;51.600;7.558;2023-01-08T04:26:09;10.10;99.90
18948;DHT22;9607;51.600;7.558;2023-01-08T04:28:36;10.10;99.90
18948;DHT22;9607;51.600;7.558;2023-01-08T04:31:04;10.10;99.90
18948;DHT22;9607;51.600;7.558;2023-01-08T04:33:32;10.10;99.90
18948;DHT22;9607;51.600;7.558;2023-01-08T04:35:58;10.10;99.90
18948;DHT22;9607;51.600;7.558;2023-01-08T04:38:26;10.10;99.90
18948;DHT22;9607;51.600;7.558;2023-01-08T04:40:55;10.00;99.90
18948;DHT22;9607;51.600;7.558;2023-01-08T04:43:22;10.10;99.90
18948;DHT22;9607;51.600;7.558;2023-01-08T04:45:49;10.10;99.90
18948;DHT22;9607;51.600;7.558;2023-01-08T04:48:16;10.10;99.90
18948;DHT22;9607;51.600;7.558;2023-01-08T04:50:43;10.10;99.90
18948;DHT22;9607;51.600;7.558;2023-01-08T04:53:09;10.10;99.90
18948;DHT22;9607;51.600;7.558;2023-01-08T04:55:37;10.10;99.90
18948;DHT22;9607;51.600;7.558;2023-01-08T04:58:04;10.10;99.90
18948;DHT22;9607;51.600;7.558;2023-01-08T05:00:31;10.10;99.90
18948;DHT22;9607;51.600;7.558;2023-01-08T05:02:57;10.10;99.90
18948;DHT22;9607;51.600;7.558;2023-01-08T05:05:24;10.10;99.90
18948;DHT22;9607;51.600;7.558;2023-01-08T05:07:51;10.20;99.90
18948;DHT22;9607;51.600;7.558;2023-01-08T05:10:17;10.10;99.90
18948;DHT22;9607;51.600;7.558;2023-01-08T05:12:45;10.10;99.90
18948;DHT22;9607;51.600;7.558;2023-01-08T05:15:12;10.20;99.90
18948;DHT22;9607;51.600;7.558;2023-01-08T05:17:39;10.20;99.90
18948;DHT22;9607;51.600;7.558;2023-01-08T05:20:06;10.20;99.90
18948;DHT22;9607;51.600;7.558;2023-01-08T05:22:34;10.20;99.90
18948;DHT22;9607;51.600;7.558;2023-01-08T05:25:01;10.20;99.90
18948;DHT22;9607;51.600;7.558;2023-01-08T05:27:27;10.20;99.90
18948;DHT22;9607;51.600;7.558;2023-01-08T05:29:55;10.20;99.90
18948;DHT22;9607;51.600;7.558;2023-01-08T05:32:22;10.20;99.90
18948;DHT22;9607;51.600;7.558;2023-01-08T05:34:49;10.20;99.90
18948;DHT22;9607;51.600;7.558;2023-01-08T05:37:15;10.20;99.90
18948;DHT22;9607;51.600;7.558;2023-01-08T05:39:42;10.20;99.90
18948;DHT22;9607;51.600;7.558;2023-01-08T05:42:09;10.20;99.90
18948;DHT22;9607;51.600;7.558;2023-01-08T05:44:35;10.20;99.90
18948;DHT22;9607;51.600;7.558;2023-01-08T05:47:03;10.20;99.90
18948;DHT22;9607;51.600;7.558;2023-01-08T05:49:30;10.20;99.90
18948;DHT22;9607;51.600;7.558;2023-01-08T05:51:57;10.20;99.90
18948;DHT22;9607;51.600;7.558;2023-01-08T05:54:23;10.20;99.90
18948;DHT22;9607;51.600;7.558;2023-01-08T05:56:50;10.20;99.90
18948;DHT22;9607;51.600;7.558;2023-01-08T05:59:17;10.20;99.90
18948;DHT22;9607;51.600;7.558;2023-01-08T06:01:44;10.20;99.90
18948;DHT22;9607;51.600;7.558;2023-01-08T06:04:12;10.20;99.90
18948;DHT22;9607;51.600;7.558;2023-01-08T06:06:38;10.20;99.90
18948;DHT22;9607;51.600;7.558;2023-01-08T06:09:05;10.20;99.90
18948;DHT22;9607;51.600;7.558;2023-01-08T06:11:32;10.20;99.90
18948;DHT22;9607;51.600;7.558;2023-01-08T06:13:58;10.20;99.90
18948;DHT22;9607;51.600;7.558;2023-01-08T06:16:25;10.10;99.90
18948;DHT22;9607;51.600;7.558;2023-01-08T06:18:51;10.20;99.90
18948;DHT22;9607;51.600;7.558;2023-01-08T06:21:20;10.20;99.90
18948;DHT22;9607;51.600;7.558;2023-01-08T06:23:46;10.20;99.90
18948;DHT22;9607;51.600;7.558;2023-01-08T06:26:13;10.20;99.90
18948;DHT22;9607;51.600;7.558;2023-01-08T06:28:40;10.10;99.90
18948;DHT22;9607;51.600;7.558;2023-01-08T06:31:06;10.10;99.90
18948;DHT22;9607;51.600;7.558;2023-01-08T06:33:33;10.00;99.90
18948;DHT22;9607;51.600;7.558;2023-01-08T06:36:01;10.00;99.90
18948;DHT22;9607;51.600;7.558;2023-01-08T06:38:31;10.10;99.90
18948;DHT22;9607;51.600;7.558;2023-01-08T06:40:58;10.10;99.90
18948;DHT22;9607;51.600;7.558;2023-01-08T06:43:28;10.10;99.90
18948;DHT22;9607;51.600;7.558;2023-01-08T06:45:56;10.10;99.90
18948;DHT22;9607;51.600;7.558;2023-01-08T06:48:24;10.10;99.90
18948;DHT22;9607;51.600;7.558;2023-01-08T06:50:51;10.10;99.90
18948;DHT22;9607;51.600;7.558;2023-01-08T06:53:18;10.10;99.90
18948;DHT22;9607;51.600;7.558;2023-01-08T06:55:46;10.10;99.90
18948;DHT22;9607;51.600;7.558;2023-01-08T06:58:12;10.10;99.90
18948;DHT22;9607;51.600;7.558;2023-01-08T07:00:39;10.10;99.90
18948;DHT22;9607;51.600;7.558;2023-01-08T07:03:06;10.10;99.90
18948;DHT22;9607;51.600;7.558;2023-01-08T07:05:33;10.10;99.90
18948;DHT22;9607;51.600;7.558;2023-01-08T07:08:00;10.10;99.90
18948;DHT22;9607;51.600;7.558;2023-01-08T07:10:27;10.10;99.90
18948;DHT22;9607;51.600;7.558;2023-01-08T07:12:57;10.00;99.90
18948;DHT22;9607;51.600;7.558;2023-01-08T07:15:24;10.00;99.90
18948;DHT22;9607;51.600;7.558;2023-01-08T07:17:50;9.90;99.90
18948;DHT22;9607;51.600;7.558;2023-01-08T07:20:17;9.90;99.90
18948;DHT22;9607;51.600;7.558;2023-01-08T07:22:44;9.90;99.90
18948;DHT22;9607;51.600;7.558;2023-01-08T07:25:10;10.00;99.90
18948;DHT22;9607;51.600;7.558;2023-01-08T07:27:37;10.00;99.90
18948;DHT22;9607;51.600;7.558;2023-01-08T07:30:07;10.00;99.90
18948;DHT22;9607;51.600;7.558;2023-01-08T07:32:34;10.10;99.90
18948;DHT22;9607;51.600;7.558;2023-01-08T07:35:01;10.00;99.90
18948;DHT22;9607;51.600;7.558;2023-01-08T07:37:28;10.10;99.90
18948;DHT22;9607;51.600;7.558;2023-01-08T07:39:54;10.10;99.90
18948;DHT22;9607;51.600;7.558;2023-01-08T07:42:21;10.20;99.90
18948;DHT22;9607;51.600;7.558;2023-01-08T07:44:48;10.20;99.90
18948;DHT22;9607;51.600;7.558;2023-01-08T07:47:16;10.30;99.90
18948;DHT22;9607;51.600;7.558;2023-01-08T07:49:43;10.30;99.90
18948;DHT22;9607;51.600;7.558;2023-01-08T07:52:09;10.30;99.90
18948;DHT22;9607;51.600;7.558;2023-01-08T07:54:36;10.20;99.90
18948;DHT22;9607;51.600;7.558;2023-01-08T07:57:03;10.10;99.90
18948;DHT22;9607;51.600;7.558;2023-01-08T07:59:30;9.90;99.90
18948;DHT22;9607;51.600;7.558;2023-01-08T08:01:57;9.80;99.90
18948;DHT22;9607;51.600;7.558;2023-01-08T08:04:25;9.60;99.90
18948;DHT22;9607;51.600;7.558;2023-01-08T08:06:53;9.60;99.90
18948;DHT22;9607;51.600;7.558;2023-01-08T08:09:20;9.50;99.90
18948;DHT22;9607;51.600;7.558;2023-01-08T08:11:46;9.40;99.90
18948;DHT22;9607;51.600;7.558;2023-01-08T08:14:13;9.30;99.90
18948;DHT22;9607;51.600;7.558;2023-01-08T08:16:40;9.30;99.90
18948;DHT22;9607;51.600;7.558;2023-01-08T08:19:07;9.20;99.90
18948;DHT22;9607;51.600;7.558;2023-01-08T08:21:35;9.20;99.90
18948;DHT22;9607;51.600;7.558;2023-01-08T08:24:01;9.10;99.90
18948;DHT22;9607;51.600;7.558;2023-01-08T08:26:28;9.20;99.90
18948;DHT22;9607;51.600;7.558;2023-01-08T08:28:55;9.20;99.90
18948;DHT22;9607;51.600;7.558;2023-01-08T08:31:23;9.10;99.90
18948;DHT22;9607;51.600;7.558;2023-01-08T08:33:50;9.10;99.90
18948;DHT22;9607;51.600;7.558;2023-01-08T08:36:17;9.10;99.90
18948;DHT22;9607;51.600;7.558;2023-01-08T08:38:45;9.10;99.90
18948;DHT22;9607;51.600;7.558;2023-01-08T08:41:12;9.10;99.90
18948;DHT22;9607;51.600;7.558;2023-01-08T08:43:39;9.10;99.90
18948;DHT22;9607;51.600;7.558;2023-01-08T08:46:05;9.00;99.90
18948;DHT22;9607;51.600;7.558;2023-01-08T08:48:32;9.00;99.90
18948;DHT22;9607;51.600;7.558;2023-01-08T08:50:59;9.00;99.90
18948;DHT22;9607;51.600;7.558;2023-01-08T08:53:26;9.00;99.90
18948;DHT22;9607;51.600;7.558;2023-01-08T08:55:56;9.00;99.90
18948;DHT22;9607;51.600;7.558;2023-01-08T08:58:23;9.10;99.90
18948;DHT22;9607;51.600;7.558;2023-01-08T09:00:50;9.00;99.90
18948;DHT22;9607;51.600;7.558;2023-01-08T09:03:17;9.10;99.90
18948;DHT22;9607;51.600;7.558;2023-01-08T09:05:44;9.10;99.90
18948;DHT22;9607;51.600;7.558;2023-01-08T09:08:11;9.10;99.90
18948;DHT22;9607;51.600;7.558;2023-01-08T09:10:38;9.10;99.90
18948;DHT22;9607;51.600;7.558;2023-01-08T09:13:08;9.10;99.90
18948;DHT22;9607;51.600;7.558;2023-01-08T09:15:35;9.00;99.90
18948;DHT22;9607;51.600;7.558;2023-01-08T09:18:03;9.00;99.90
18948;DHT22;9607;51.600;7.558;2023-01-08T09:20:30;9.00;99.90
18948;DHT22;9607;51.600;7.558;2023-01-08T09:22:58;8.90;99.90
18948;DHT22;9607;51.600;7.558;2023-01-08T09:25:25;8.90;99.90
18948;DHT22;9607;51.600;7.558;2023-01-08T09:27:57;8.90;99.90
18948;DHT22;9607;51.600;7.558;2023-01-08T09:30:26;8.90;99.90
18948;DHT22;9607;51.600;7.558;2023-01-08T09:32:55;8.80;99.90
18948;DHT22;9607;51.600;7.558;2023-01-08T09:35:23;8.80;99.90
18948;DHT22;9607;51.600;7.558;2023-01-08T09:37:50;8.90;99.90
18948;DHT22;9607;51.600;7.558;2023-01-08T09:40:18;8.90;99.90
18948;DHT22;9607;51.600;7.558;2023-01-08T09:42:52;8.90;99.90
18948;DHT22;9607;51.600;7.558;2023-01-08T09:45:24;8.90;99.90
18948;DHT22;9607;51.600;7.558;2023-01-08T09:47:54;8.90;99.90
18948;DHT22;9607;51.600;7.558;2023-01-08T09:50:23;9.00;99.90
18948;DHT22;9607;51.600;7.558;2023-01-08T09:52:52;9.00;99.90
18948;DHT22;9607;51.600;7.558;2023-01-08T09:55:20;9.00;99.90
18948;DHT22;9607;51.600;7.558;2023-01-08T09:57:47;9.00;99.90
18948;DHT22;9607;51.600;7.558;2023-01-08T10:00:17;9.10;99.90
18948;DHT22;9607;51.600;7.558;2023-01-08T10:02:46;9.10;99.90
18948;DHT22;9607;51.600;7.558;2023-01-08T10:05:16;9.10;99.90
18948;DHT22;9607;51.600;7.558;2023-01-08T10:07:43;9.10;99.90
18948;DHT22;9607;51.600;7.558;2023-01-08T10:10:17;9.20;99.90
18948;DHT22;9607;51.600;7.558;2023-01-08T10:12:45;9.30;99.90
18948;DHT22;9607;51.600;7.558;2023-01-08T10:15:13;9.30;99.90
18948;DHT22;9607;51.600;7.558;2023-01-08T10:17:44;9.30;99.90
18948;DHT22;9607;51.600;7.558;2023-01-08T10:20:14;9.30;99.90
18948;DHT22;9607;51.600;7.558;2023-01-08T10:22:41;9.20;99.90
18948;DHT22;9607;51.600;7.558;2023-01-08T10:25:11;9.30;99.90
18948;DHT22;9607;51.600;7.558;2023-01-08T10:27:46;9.40;99.90
18948;DHT22;9607;51.600;7.558;2023-01-08T10:30:18;9.50;99.90
18948;DHT22;9607;51.600;7.558;2023-01-08T10:32:51;9.60;99.90
18948;DHT22;9607;51.600;7.558;2023-01-08T10:35:22;9.60;99.90
18948;DHT22;9607;51.600;7.558;2023-01-08T10:37:50;9.70;99.90
18948;DHT22;9607;51.600;7.558;2023-01-08T10:40:22;9.80;99.90
18948;DHT22;9607;51.600;7.558;2023-01-08T10:42:50;9.90;99.90
18948;DHT22;9607;51.600;7.558;2023-01-08T10:45:19;10.00;99.90
18948;DHT22;9607;51.600;7.558;2023-01-08T10:47:50;10.00;99.90
18948;DHT22;9607;51.600;7.558;2023-01-08T10:50:22;10.10;99.90
18948;DHT22;9607;51.600;7.558;2023-01-08T10:52:54;10.20;99.90
18948;DHT22;9607;51.600;7.558;2023-01-08T10:55:23;10.30;99.90
18948;DHT22;9607;51.600;7.558;2023-01-08T10:57:58;10.40;99.90
18948;DHT22;9607;51.600;7.558;2023-01-08T11:00:27;10.50;99.90
18948;DHT22;9607;51.600;7.558;2023-01-08T11:02:57;10.60;99.90
18948;DHT22;9607;51.600;7.558;2023-01-08T11:05:31;10.70;99.90
18948;DHT22;9607;51.600;7.558;2023-01-08T11:07:59;10.80;99.90
18948;DHT22;9607;51.600;7.558;2023-01-08T11:10:28;10.80;99.90
18948;DHT22;9607;51.600;7.558;2023-01-08T11:12:58;10.90;99.90
18948;DHT22;9607;51.600;7.558;2023-01-08T11:15:37;10.90;99.90
18948;DHT22;9607;51.600;7.558;2023-01-08T11:18:09;10.90;99.90
18948;DHT22;9607;51.600;7.558;2023-01-08T11:20:38;10.90;99.90
18948;DHT22;9607;51.600;7.558;2023-01-08T11:23:14;10.90;99.90
18948;DHT22;9607;51.600;7.558;2023-01-08T11:25:43;11.00;99.90
18948;DHT22;9607;51.600;7.558;2023-01-08T11:28:15;11.00;99.90
18948;DHT22;9607;51.600;7.558;2023-01-08T11:30:49;11.00;99.90
18948;DHT22;9607;51.600;7.558;2023-01-08T11:33:22;11.00;99.90
18948;DHT22;9607;51.600;7.558;2023-01-08T11:35:57;11.00;99.90
18948;DHT22;9607;51.600;7.558;2023-01-08T11:38:26;11.10;99.90
18948;DHT22;9607;51.600;7.558;2023-01-08T11:40:58;11.10;99.90
18948;DHT22;9607;51.600;7.558;2023-01-08T11:43:32;11.10;99.90
18948;DHT22;9607;51.600;7.558;2023-01-08T11:46:17;11.10;99.90
18948;DHT22;9607;51.600;7.558;2023-01-08T11:48:56;11.20;99.90
18948;DHT22;9607;51.600;7.558;2023-01-08T11:51:35;11.30;99.90
18948;DHT22;9607;51.600;7.558;2023-01-08T11:54:11;11.40;99.90
18948;DHT22;9607;51.600;7.558;2023-01-08T11:56:56;11.50;99.90
18948;DHT22;9607;51.600;7.558;2023-01-08T11:59:32;11.70;99.90
18948;DHT22;9607;51.600;7.558;2023-01-08T12:02:09;11.80;99.90
18948;DHT22;9607;51.600;7.558;2023-01-08T12:05:15;11.90;99.90
18948;DHT22;9607;51.600;7.558;2023-01-08T12:07:51;12.10;99.90
18948;DHT22;9607;51.600;7.558;2023-01-08T12:10:25;12.20;99.90
18948;DHT22;9607;51.600;7.558;2023-01-08T12:13:03;12.40;99.90
18948;DHT22;9607;51.600;7.558;2023-01-08T12:15:43;12.50;99.90
18948;DHT22;9607;51.600;7.558;2023-01-08T12:18:34;12.60;99.90
18948;DHT22;9607;51.600;7.558;2023-01-08T12:21:12;12.70;99.90
18948;DHT22;9607;51.600;7.558;2023-01-08T12:23:54;12.70;99.90
18948;DHT22;9607;51.600;7.558;2023-01-08T12:26:29;12.80;99.90
18948;DHT22;9607;51.600;7.558;2023-01-08T12:29:15;12.70;99.90
18948;DHT22;9607;51.600;7.558;2023-01-08T12:32:15;12.60;99.90
18948;DHT22;9607;51.600;7.558;2023-01-08T12:34:48;12.50;99.90
18948;DHT22;9607;51.600;7.558;2023-01-08T12:37:20;12.50;99.90
18948;DHT22;9607;51.600;7.558;2023-01-08T12:39:52;12.60;99.90
18948;DHT22;9607;51.600;7.558;2023-01-08T12:42:23;12.80;99.90
18948;DHT22;9607;51.600;7.558;2023-01-08T12:44:54;13.00;99.90
18948;DHT22;9607;51.600;7.558;2023-01-08T12:47:27;13.30;99.90
18948;DHT22;9607;51.600;7.558;2023-01-08T12:50:04;13.40;99.90
18948;DHT22;9607;51.600;7.558;2023-01-08T12:52:38;13.50;99.90
18948;DHT22;9607;51.600;7.558;2023-01-08T12:55:16;13.60;99.90
18948;DHT22;9607;51.600;7.558;2023-01-08T12:57:52;14.30;99.90
18948;DHT22;9607;51.600;7.558;2023-01-08T13:00:28;15.00;99.90
18948;DHT22;9607;51.600;7.558;2023-01-08T13:02:58;15.20;99.90
18948;DHT22;9607;51.600;7.558;2023-01-08T13:05:32;15.00;99.90
18948;DHT22;9607;51.600;7.558;2023-01-08T13:08:00;14.80;99.90
18948;DHT22;9607;51.600;7.558;2023-01-08T13:10:35;14.50;99.90
18948;DHT22;9607;51.600;7.558;2023-01-08T13:13:03;14.30;99.90
18948;DHT22;9607;51.600;7.558;2023-01-08T13:15:32;14.10;99.90
18948;DHT22;9607;51.600;7.558;2023-01-08T13:18:06;13.90;99.90
18948;DHT22;9607;51.600;7.558;2023-01-08T13:20:33;13.70;99.90
18948;DHT22;9607;51.600;7.558;2023-01-08T13:23:02;13.40;99.90
18948;DHT22;9607;51.600;7.558;2023-01-08T13:25:35;13.10;99.90
18948;DHT22;9607;51.600;7.558;2023-01-08T13:28:23;12.60;99.90
18948;DHT22;9607;51.600;7.558;2023-01-08T13:30:53;11.70;99.90
18948;DHT22;9607;51.600;7.558;2023-01-08T13:33:25;10.80;99.90
18948;DHT22;9607;51.600;7.558;2023-01-08T13:36:12;10.20;99.90
18948;DHT22;9607;51.600;7.558;2023-01-08T13:38:40;9.80;99.90
18948;DHT22;9607;51.600;7.558;2023-01-08T13:41:23;9.50;99.90
18948;DHT22;9607;51.600;7.558;2023-01-08T13:43:56;9.30;99.90
18948;DHT22;9607;51.600;7.558;2023-01-08T13:46:23;9.30;99.90
18948;DHT22;9607;51.600;7.558;2023-01-08T13:48:57;9.20;99.90
18948;DHT22;9607;51.600;7.558;2023-01-08T13:51:41;9.10;99.90
18948;DHT22;9607;51.600;7.558;2023-01-08T13:54:24;9.00;99.90
18948;DHT22;9607;51.600;7.558;2023-01-08T13:57:01;9.00;99.90
18948;DHT22;9607;51.600;7.558;2023-01-08T13:59:35;9.00;99.90
18948;DHT22;9607;51.600;7.558;2023-01-08T14:02:02;8.90;99.90
18948;DHT22;9607;51.600;7.558;2023-01-08T14:04:29;8.90;99.90
18948;DHT22;9607;51.600;7.558;2023-01-08T14:07:09;8.90;99.90
18948;DHT22;9607;51.600;7.558;2023-01-08T14:09:38;8.90;99.90
18948;DHT22;9607;51.600;7.558;2023-01-08T14:12:08;8.90;99.90
18948;DHT22;9607;51.600;7.558;2023-01-08T14:14:38;9.00;99.90
18948;DHT22;9607;51.600;7.558;2023-01-08T14:17:12;9.10;99.90
18948;DHT22;9607;51.600;7.558;2023-01-08T14:19:41;9.20;99.90
18948;DHT22;9607;51.600;7.558;2023-01-08T14:22:15;9.30;99.90
18948;DHT22;9607;51.600;7.558;2023-01-08T14:24:42;9.40;99.90
18948;DHT22;9607;51.600;7.558;2023-01-08T14:27:20;9.50;99.90
18948;DHT22;9607;51.600;7.558;2023-01-08T14:29:48;9.50;99.90
18948;DHT22;9607;51.600;7.558;2023-01-08T14:32:16;9.50;99.90
18948;DHT22;9607;51.600;7.558;2023-01-08T14:34:43;9.40;99.90
18948;DHT22;9607;51.600;7.558;2023-01-08T14:37:12;9.40;99.90
18948;DHT22;9607;51.600;7.558;2023-01-08T14:39:39;9.50;99.90
18948;DHT22;9607;51.600;7.558;2023-01-08T14:42:08;9.50;99.90
18948;DHT22;9607;51.600;7.558;2023-01-08T14:44:58;9.50;99.90
18948;DHT22;9607;51.600;7.558;2023-01-08T14:47:28;9.50;99.90
18948;DHT22;9607;51.600;7.558;2023-01-08T14:49:56;9.40;99.90
18948;DHT22;9607;51.600;7.558;2023-01-08T14:52:23;9.40;99.90
18948;DHT22;9607;51.600;7.558;2023-01-08T14:54:53;9.40;99.90
18948;DHT22;9607;51.600;7.558;2023-01-08T14:57:21;9.30;99.90
18948;DHT22;9607;51.600;7.558;2023-01-08T14:59:53;9.30;99.90
18948;DHT22;9607;51.600;7.558;2023-01-08T15:02:27;9.30;99.90
18948;DHT22;9607;51.600;7.558;2023-01-08T15:05:15;9.30;99.90
18948;DHT22;9607;51.600;7.558;2023-01-08T15:07:53;9.20;99.90
18948;DHT22;9607;51.600;7.558;2023-01-08T15:10:38;9.20;99.90
18948;DHT22;9607;51.600;7.558;2023-01-08T15:13:06;9.10;99.90
18948;DHT22;9607;51.600;7.558;2023-01-08T15:15:52;9.10;99.90
18948;DHT22;9607;51.600;7.558;2023-01-08T15:18:21;9.00;99.90
18948;DHT22;9607;51.600;7.558;2023-01-08T15:20:49;9.00;99.90
18948;DHT22;9607;51.600;7.558;2023-01-08T15:23:30;8.90;99.90
18948;DHT22;9607;51.600;7.558;2023-01-08T15:25:59;8.90;99.90
18948;DHT22;9607;51.600;7.558;2023-01-08T15:28:26;8.90;99.90
18948;DHT22;9607;51.600;7.558;2023-01-08T15:30:55;8.90;99.90
18948;DHT22;9607;51.600;7.558;2023-01-08T15:33:25;8.90;99.90
18948;DHT22;9607;51.600;7.558;2023-01-08T15:35:52;8.90;99.90
18948;DHT22;9607;51.600;7.558;2023-01-08T15:38:21;8.90;99.90
18948;DHT22;9607;51.600;7.558;2023-01-08T15:40:49;8.90;99.90
18948;DHT22;9607;51.600;7.558;2023-01-08T15:43:18;8.80;99.90
18948;DHT22;9607;51.600;7.558;2023-01-08T15:45:45;8.70;99.90
18948;DHT22;9607;51.600;7.558;2023-01-08T15:48:12;8.60;99.90
18948;DHT22;9607;51.600;7.558;2023-01-08T15:50:42;8.60;99.90
18948;DHT22;9607;51.600;7.558;2023-01-08T15:53:14;8.50;99.90
18948;DHT22;9607;51.600;7.558;2023-01-08T15:55:41;8.50;99.90
18948;DHT22;9607;51.600;7.558;2023-01-08T15:58:10;8.50;99.90
18948;DHT22;9607;51.600;7.558;2023-01-08T16:00:38;8.50;99.90
18948;DHT22;9607;51.600;7.558;2023-01-08T16:03:05;8.50;99.90
18948;DHT22;9607;51.600;7.558;2023-01-08T16:05:33;8.50;99.90
18948;DHT22;9607;51.600;7.558;2023-01-08T16:08:04;8.60;99.90
18948;DHT22;9607;51.600;7.558;2023-01-08T16:10:32;8.60;99.90
18948;DHT22;9607;51.600;7.558;2023-01-08T16:12:59;8.50;99.90